Aviation Digital Data Service (ADDS)

Output produced by METARs form (0958 UTC 19 January 2019)
found at http://www.aviationweather.gov/metar/data/
 
LATI 190950Z VRB01KT 9999 BKN055 12/07 Q1017 NOSIG
TAF LATI 190500Z 1906/2006 16008KT 9999 SCT040 BKN080 
     TEMPO 1908/1915 -RA FEW030CB BKN060 
     TEMPO 1923/2006 SCT030CB OVC050